sensor_id;sensor_type;location;lat;lon;timestamp;P1;durP1;ratioP1;P2;durP2;ratioP2
16969;SDS011;8601;48.718;8.992;2023-03-05T00:01:03;27.50;;;19.37;;
16969;SDS011;8601;48.718;8.992;2023-03-05T00:03:32;30.77;;;19.60;;
16969;SDS011;8601;48.718;8.992;2023-03-05T00:05:58;30.00;;;19.90;;
16969;SDS011;8601;48.718;8.992;2023-03-05T00:08:28;28.67;;;19.67;;
16969;SDS011;8601;48.718;8.992;2023-03-05T00:10:55;32.23;;;20.77;;
16969;SDS011;8601;48.718;8.992;2023-03-05T00:13:23;32.67;;;21.37;;
16969;SDS011;8601;48.718;8.992;2023-03-05T00:15:51;31.87;;;20.97;;
16969;SDS011;8601;48.718;8.992;2023-03-05T00:18:18;33.43;;;21.80;;
16969;SDS011;8601;48.718;8.992;2023-03-05T00:20:46;29.80;;;19.97;;
16969;SDS011;8601;48.718;8.992;2023-03-05T00:23:15;35.87;;;21.97;;
16969;SDS011;8601;48.718;8.992;2023-03-05T00:25:43;36.43;;;22.43;;
16969;SDS011;8601;48.718;8.992;2023-03-05T00:28:11;35.30;;;22.40;;
16969;SDS011;8601;48.718;8.992;2023-03-05T00:30:39;35.83;;;21.13;;
16969;SDS011;8601;48.718;8.992;2023-03-05T00:33:06;32.10;;;21.07;;
16969;SDS011;8601;48.718;8.992;2023-03-05T00:35:37;37.17;;;24.07;;
16969;SDS011;8601;48.718;8.992;2023-03-05T00:38:06;33.80;;;21.47;;
16969;SDS011;8601;48.718;8.992;2023-03-05T00:40:34;34.77;;;21.97;;
16969;SDS011;8601;48.718;8.992;2023-03-05T00:43:05;32.77;;;20.93;;
16969;SDS011;8601;48.718;8.992;2023-03-05T00:45:33;30.57;;;20.63;;
16969;SDS011;8601;48.718;8.992;2023-03-05T00:48:02;30.00;;;21.03;;
16969;SDS011;8601;48.718;8.992;2023-03-05T00:50:30;32.20;;;20.50;;
16969;SDS011;8601;48.718;8.992;2023-03-05T00:52:57;39.37;;;22.33;;
16969;SDS011;8601;48.718;8.992;2023-03-05T00:55:25;35.90;;;21.73;;
16969;SDS011;8601;48.718;8.992;2023-03-05T00:57:52;37.70;;;21.77;;
16969;SDS011;8601;48.718;8.992;2023-03-05T01:00:20;34.53;;;23.43;;
16969;SDS011;8601;48.718;8.992;2023-03-05T01:02:47;31.53;;;21.63;;
16969;SDS011;8601;48.718;8.992;2023-03-05T01:05:14;36.83;;;22.63;;
16969;SDS011;8601;48.718;8.992;2023-03-05T01:07:43;35.60;;;22.30;;
16969;SDS011;8601;48.718;8.992;2023-03-05T01:10:10;33.03;;;22.03;;
16969;SDS011;8601;48.718;8.992;2023-03-05T01:12:38;35.03;;;21.93;;
16969;SDS011;8601;48.718;8.992;2023-03-05T01:15:05;34.90;;;22.13;;
16969;SDS011;8601;48.718;8.992;2023-03-05T01:17:35;36.20;;;22.70;;
16969;SDS011;8601;48.718;8.992;2023-03-05T01:20:02;39.03;;;23.50;;
16969;SDS011;8601;48.718;8.992;2023-03-05T01:22:32;35.03;;;21.80;;
16969;SDS011;8601;48.718;8.992;2023-03-05T01:25:02;33.33;;;22.73;;
16969;SDS011;8601;48.718;8.992;2023-03-05T01:27:31;34.23;;;22.33;;
16969;SDS011;8601;48.718;8.992;2023-03-05T01:29:59;32.20;;;22.53;;
16969;SDS011;8601;48.718;8.992;2023-03-05T01:32:26;34.37;;;21.87;;
16969;SDS011;8601;48.718;8.992;2023-03-05T01:34:55;35.87;;;21.23;;
16969;SDS011;8601;48.718;8.992;2023-03-05T01:37:22;34.03;;;22.77;;
16969;SDS011;8601;48.718;8.992;2023-03-05T01:39:49;35.97;;;21.40;;
16969;SDS011;8601;48.718;8.992;2023-03-05T01:42:17;36.77;;;21.03;;
16969;SDS011;8601;48.718;8.992;2023-03-05T01:44:58;34.23;;;22.20;;
16969;SDS011;8601;48.718;8.992;2023-03-05T01:47:26;36.67;;;23.20;;
16969;SDS011;8601;48.718;8.992;2023-03-05T01:49:55;37.07;;;23.13;;
16969;SDS011;8601;48.718;8.992;2023-03-05T01:52:22;36.30;;;23.67;;
16969;SDS011;8601;48.718;8.992;2023-03-05T01:54:53;38.43;;;22.33;;
16969;SDS011;8601;48.718;8.992;2023-03-05T01:57:25;37.43;;;23.87;;
16969;SDS011;8601;48.718;8.992;2023-03-05T01:59:58;40.07;;;24.73;;
16969;SDS011;8601;48.718;8.992;2023-03-05T02:02:28;39.87;;;24.17;;
16969;SDS011;8601;48.718;8.992;2023-03-05T02:04:59;39.20;;;22.93;;
16969;SDS011;8601;48.718;8.992;2023-03-05T02:07:29;37.97;;;24.67;;
16969;SDS011;8601;48.718;8.992;2023-03-05T02:09:58;39.00;;;24.67;;
16969;SDS011;8601;48.718;8.992;2023-03-05T02:12:25;37.20;;;23.50;;
16969;SDS011;8601;48.718;8.992;2023-03-05T02:14:52;40.90;;;26.60;;
16969;SDS011;8601;48.718;8.992;2023-03-05T02:17:24;38.93;;;23.43;;
16969;SDS011;8601;48.718;8.992;2023-03-05T02:19:53;41.77;;;24.07;;
16969;SDS011;8601;48.718;8.992;2023-03-05T02:22:23;40.47;;;24.00;;
16969;SDS011;8601;48.718;8.992;2023-03-05T02:24:50;36.93;;;23.67;;
16969;SDS011;8601;48.718;8.992;2023-03-05T02:27:18;41.73;;;25.10;;
16969;SDS011;8601;48.718;8.992;2023-03-05T02:29:48;38.73;;;24.43;;
16969;SDS011;8601;48.718;8.992;2023-03-05T02:32:16;44.53;;;25.00;;
16969;SDS011;8601;48.718;8.992;2023-03-05T02:34:42;37.57;;;23.70;;
16969;SDS011;8601;48.718;8.992;2023-03-05T02:37:09;44.07;;;25.53;;
16969;SDS011;8601;48.718;8.992;2023-03-05T02:39:38;37.37;;;24.17;;
16969;SDS011;8601;48.718;8.992;2023-03-05T02:42:04;42.70;;;25.53;;
16969;SDS011;8601;48.718;8.992;2023-03-05T02:44:33;39.20;;;23.97;;
16969;SDS011;8601;48.718;8.992;2023-03-05T02:47:00;43.07;;;24.77;;
16969;SDS011;8601;48.718;8.992;2023-03-05T02:49:27;39.77;;;24.77;;
16969;SDS011;8601;48.718;8.992;2023-03-05T02:51:54;44.40;;;25.67;;
16969;SDS011;8601;48.718;8.992;2023-03-05T02:54:22;41.90;;;25.67;;
16969;SDS011;8601;48.718;8.992;2023-03-05T02:56:51;42.20;;;25.20;;
16969;SDS011;8601;48.718;8.992;2023-03-05T02:59:20;41.57;;;23.83;;
16969;SDS011;8601;48.718;8.992;2023-03-05T03:01:48;40.17;;;26.63;;
16969;SDS011;8601;48.718;8.992;2023-03-05T03:04:15;42.70;;;25.20;;
16969;SDS011;8601;48.718;8.992;2023-03-05T03:06:42;37.57;;;24.70;;
16969;SDS011;8601;48.718;8.992;2023-03-05T03:09:09;38.37;;;23.80;;
16969;SDS011;8601;48.718;8.992;2023-03-05T03:11:36;38.27;;;24.80;;
16969;SDS011;8601;48.718;8.992;2023-03-05T03:14:05;36.83;;;23.70;;
16969;SDS011;8601;48.718;8.992;2023-03-05T03:16:39;42.43;;;23.57;;
16969;SDS011;8601;48.718;8.992;2023-03-05T03:19:06;42.13;;;24.03;;
16969;SDS011;8601;48.718;8.992;2023-03-05T03:21:41;44.40;;;26.07;;
16969;SDS011;8601;48.718;8.992;2023-03-05T03:24:08;38.40;;;24.93;;
16969;SDS011;8601;48.718;8.992;2023-03-05T03:26:35;40.30;;;24.70;;
16969;SDS011;8601;48.718;8.992;2023-03-05T03:29:02;40.03;;;25.63;;
16969;SDS011;8601;48.718;8.992;2023-03-05T03:31:30;37.20;;;22.60;;
16969;SDS011;8601;48.718;8.992;2023-03-05T03:33:57;41.03;;;24.07;;
16969;SDS011;8601;48.718;8.992;2023-03-05T03:36:24;37.93;;;24.77;;
16969;SDS011;8601;48.718;8.992;2023-03-05T03:38:51;38.10;;;25.23;;
16969;SDS011;8601;48.718;8.992;2023-03-05T03:41:18;40.70;;;25.97;;
16969;SDS011;8601;48.718;8.992;2023-03-05T03:43:46;38.67;;;25.37;;
16969;SDS011;8601;48.718;8.992;2023-03-05T03:46:13;42.40;;;25.67;;
16969;SDS011;8601;48.718;8.992;2023-03-05T03:48:42;38.57;;;24.00;;
16969;SDS011;8601;48.718;8.992;2023-03-05T03:51:09;42.83;;;24.90;;
16969;SDS011;8601;48.718;8.992;2023-03-05T03:53:35;40.17;;;25.07;;
16969;SDS011;8601;48.718;8.992;2023-03-05T03:56:03;39.93;;;25.37;;
16969;SDS011;8601;48.718;8.992;2023-03-05T03:58:30;40.27;;;25.00;;
16969;SDS011;8601;48.718;8.992;2023-03-05T04:00:57;42.37;;;25.53;;
16969;SDS011;8601;48.718;8.992;2023-03-05T04:03:30;36.43;;;22.77;;
16969;SDS011;8601;48.718;8.992;2023-03-05T04:05:58;42.70;;;24.03;;
16969;SDS011;8601;48.718;8.992;2023-03-05T04:08:25;37.63;;;22.77;;
16969;SDS011;8601;48.718;8.992;2023-03-05T04:10:52;36.63;;;23.27;;
16969;SDS011;8601;48.718;8.992;2023-03-05T04:13:20;35.40;;;21.60;;
16969;SDS011;8601;48.718;8.992;2023-03-05T04:15:47;34.63;;;21.83;;
16969;SDS011;8601;48.718;8.992;2023-03-05T04:18:14;36.13;;;21.70;;
16969;SDS011;8601;48.718;8.992;2023-03-05T04:20:41;35.23;;;22.30;;
16969;SDS011;8601;48.718;8.992;2023-03-05T04:23:09;38.37;;;22.73;;
16969;SDS011;8601;48.718;8.992;2023-03-05T04:25:36;38.00;;;22.37;;
16969;SDS011;8601;48.718;8.992;2023-03-05T04:28:04;38.40;;;24.27;;
16969;SDS011;8601;48.718;8.992;2023-03-05T04:30:31;36.63;;;22.07;;
16969;SDS011;8601;48.718;8.992;2023-03-05T04:32:57;37.20;;;22.57;;
16969;SDS011;8601;48.718;8.992;2023-03-05T04:35:25;38.27;;;22.17;;
16969;SDS011;8601;48.718;8.992;2023-03-05T04:37:52;36.30;;;22.17;;
16969;SDS011;8601;48.718;8.992;2023-03-05T04:40:20;38.97;;;22.20;;
16969;SDS011;8601;48.718;8.992;2023-03-05T04:42:47;36.97;;;22.87;;
16969;SDS011;8601;48.718;8.992;2023-03-05T04:45:14;38.93;;;22.47;;
16969;SDS011;8601;48.718;8.992;2023-03-05T04:47:41;37.50;;;21.97;;
16969;SDS011;8601;48.718;8.992;2023-03-05T04:50:10;36.30;;;20.37;;
16969;SDS011;8601;48.718;8.992;2023-03-05T04:52:38;33.60;;;21.37;;
16969;SDS011;8601;48.718;8.992;2023-03-05T04:55:06;33.97;;;21.60;;
16969;SDS011;8601;48.718;8.992;2023-03-05T04:57:35;37.97;;;22.67;;
16969;SDS011;8601;48.718;8.992;2023-03-05T05:00:05;35.07;;;21.93;;
16969;SDS011;8601;48.718;8.992;2023-03-05T05:02:38;35.90;;;21.03;;
16969;SDS011;8601;48.718;8.992;2023-03-05T05:05:05;32.90;;;19.80;;
16969;SDS011;8601;48.718;8.992;2023-03-05T05:07:35;33.47;;;21.33;;
16969;SDS011;8601;48.718;8.992;2023-03-05T05:10:02;36.33;;;21.40;;
16969;SDS011;8601;48.718;8.992;2023-03-05T05:12:30;38.67;;;22.43;;
16969;SDS011;8601;48.718;8.992;2023-03-05T05:14:58;34.33;;;21.80;;
16969;SDS011;8601;48.718;8.992;2023-03-05T05:17:25;34.03;;;21.53;;
16969;SDS011;8601;48.718;8.992;2023-03-05T05:19:55;32.03;;;20.80;;
16969;SDS011;8601;48.718;8.992;2023-03-05T05:22:22;34.13;;;21.53;;
16969;SDS011;8601;48.718;8.992;2023-03-05T05:24:49;35.83;;;21.00;;
16969;SDS011;8601;48.718;8.992;2023-03-05T05:27:16;32.57;;;19.77;;
16969;SDS011;8601;48.718;8.992;2023-03-05T05:29:44;34.10;;;21.00;;
16969;SDS011;8601;48.718;8.992;2023-03-05T05:32:15;30.77;;;19.13;;
16969;SDS011;8601;48.718;8.992;2023-03-05T05:34:42;35.57;;;20.73;;
16969;SDS011;8601;48.718;8.992;2023-03-05T05:37:09;32.77;;;20.73;;
16969;SDS011;8601;48.718;8.992;2023-03-05T05:39:36;35.60;;;22.17;;
16969;SDS011;8601;48.718;8.992;2023-03-05T05:42:03;34.97;;;20.63;;
16969;SDS011;8601;48.718;8.992;2023-03-05T05:44:30;32.83;;;22.13;;
16969;SDS011;8601;48.718;8.992;2023-03-05T05:46:58;35.57;;;21.40;;
16969;SDS011;8601;48.718;8.992;2023-03-05T05:51:57;32.67;;;20.50;;
16969;SDS011;8601;48.718;8.992;2023-03-05T05:54:24;33.53;;;20.40;;
16969;SDS011;8601;48.718;8.992;2023-03-05T05:56:52;34.90;;;21.80;;
16969;SDS011;8601;48.718;8.992;2023-03-05T06:01:49;34.53;;;21.43;;
16969;SDS011;8601;48.718;8.992;2023-03-05T06:04:16;36.23;;;21.30;;
16969;SDS011;8601;48.718;8.992;2023-03-05T06:06:44;37.37;;;20.23;;
16969;SDS011;8601;48.718;8.992;2023-03-05T06:09:11;31.53;;;19.73;;
16969;SDS011;8601;48.718;8.992;2023-03-05T06:11:38;29.57;;;18.27;;
16969;SDS011;8601;48.718;8.992;2023-03-05T06:14:05;34.50;;;19.63;;
16969;SDS011;8601;48.718;8.992;2023-03-05T06:16:32;30.57;;;19.33;;
16969;SDS011;8601;48.718;8.992;2023-03-05T06:19:00;34.40;;;20.83;;
16969;SDS011;8601;48.718;8.992;2023-03-05T06:21:28;31.47;;;18.40;;
16969;SDS011;8601;48.718;8.992;2023-03-05T06:24:05;34.03;;;20.63;;
16969;SDS011;8601;48.718;8.992;2023-03-05T06:26:33;32.03;;;19.70;;
16969;SDS011;8601;48.718;8.992;2023-03-05T06:29:00;34.37;;;19.87;;
16969;SDS011;8601;48.718;8.992;2023-03-05T06:31:28;28.90;;;17.90;;
16969;SDS011;8601;48.718;8.992;2023-03-05T06:33:55;35.67;;;18.53;;
16969;SDS011;8601;48.718;8.992;2023-03-05T06:36:26;37.57;;;19.37;;
16969;SDS011;8601;48.718;8.992;2023-03-05T06:38:53;30.30;;;18.00;;
16969;SDS011;8601;48.718;8.992;2023-03-05T06:41:22;33.60;;;19.00;;
16969;SDS011;8601;48.718;8.992;2023-03-05T06:43:50;29.30;;;19.00;;
16969;SDS011;8601;48.718;8.992;2023-03-05T06:46:20;31.53;;;18.63;;
16969;SDS011;8601;48.718;8.992;2023-03-05T06:48:50;30.50;;;18.60;;
16969;SDS011;8601;48.718;8.992;2023-03-05T06:51:20;29.90;;;18.40;;
16969;SDS011;8601;48.718;8.992;2023-03-05T06:53:49;31.90;;;18.53;;
16969;SDS011;8601;48.718;8.992;2023-03-05T06:56:17;29.50;;;18.50;;
16969;SDS011;8601;48.718;8.992;2023-03-05T06:58:47;28.10;;;18.70;;
16969;SDS011;8601;48.718;8.992;2023-03-05T07:01:15;30.93;;;18.63;;
16969;SDS011;8601;48.718;8.992;2023-03-05T07:03:43;31.57;;;19.00;;
16969;SDS011;8601;48.718;8.992;2023-03-05T07:06:12;25.93;;;17.20;;
16969;SDS011;8601;48.718;8.992;2023-03-05T07:08:39;29.43;;;17.87;;
16969;SDS011;8601;48.718;8.992;2023-03-05T07:11:09;29.67;;;18.17;;
16969;SDS011;8601;48.718;8.992;2023-03-05T07:13:36;28.00;;;18.93;;
16969;SDS011;8601;48.718;8.992;2023-03-05T07:16:05;31.40;;;18.50;;
16969;SDS011;8601;48.718;8.992;2023-03-05T07:18:34;27.10;;;15.93;;
16969;SDS011;8601;48.718;8.992;2023-03-05T07:21:01;28.13;;;17.10;;
16969;SDS011;8601;48.718;8.992;2023-03-05T07:23:28;27.93;;;17.40;;
16969;SDS011;8601;48.718;8.992;2023-03-05T07:25:56;29.60;;;17.27;;
16969;SDS011;8601;48.718;8.992;2023-03-05T07:28:23;28.27;;;16.33;;
16969;SDS011;8601;48.718;8.992;2023-03-05T07:30:56;24.63;;;16.03;;
16969;SDS011;8601;48.718;8.992;2023-03-05T07:33:25;25.17;;;16.53;;
16969;SDS011;8601;48.718;8.992;2023-03-05T07:35:52;23.43;;;16.17;;
16969;SDS011;8601;48.718;8.992;2023-03-05T07:38:21;24.70;;;15.67;;
16969;SDS011;8601;48.718;8.992;2023-03-05T07:40:48;25.00;;;15.90;;
16969;SDS011;8601;48.718;8.992;2023-03-05T07:43:16;28.17;;;15.90;;
16969;SDS011;8601;48.718;8.992;2023-03-05T07:45:44;25.30;;;15.30;;
16969;SDS011;8601;48.718;8.992;2023-03-05T07:48:12;23.60;;;15.27;;
16969;SDS011;8601;48.718;8.992;2023-03-05T07:50:42;23.27;;;16.10;;
16969;SDS011;8601;48.718;8.992;2023-03-05T07:53:11;26.80;;;15.80;;
16969;SDS011;8601;48.718;8.992;2023-03-05T07:55:41;24.90;;;15.87;;
16969;SDS011;8601;48.718;8.992;2023-03-05T07:58:09;22.37;;;14.70;;
16969;SDS011;8601;48.718;8.992;2023-03-05T08:00:36;23.13;;;15.40;;
16969;SDS011;8601;48.718;8.992;2023-03-05T08:03:06;27.07;;;15.60;;
16969;SDS011;8601;48.718;8.992;2023-03-05T08:05:34;24.73;;;15.70;;
16969;SDS011;8601;48.718;8.992;2023-03-05T08:08:05;22.77;;;14.60;;
16969;SDS011;8601;48.718;8.992;2023-03-05T08:10:32;25.73;;;15.03;;
16969;SDS011;8601;48.718;8.992;2023-03-05T08:13:00;26.37;;;15.67;;
16969;SDS011;8601;48.718;8.992;2023-03-05T08:15:27;24.73;;;14.77;;
16969;SDS011;8601;48.718;8.992;2023-03-05T08:17:55;29.40;;;16.47;;
16969;SDS011;8601;48.718;8.992;2023-03-05T08:20:22;23.77;;;15.87;;
16969;SDS011;8601;48.718;8.992;2023-03-05T08:22:49;25.40;;;15.80;;
16969;SDS011;8601;48.718;8.992;2023-03-05T08:25:17;23.03;;;15.73;;
16969;SDS011;8601;48.718;8.992;2023-03-05T08:27:46;24.23;;;16.23;;
16969;SDS011;8601;48.718;8.992;2023-03-05T08:30:14;26.90;;;16.27;;
16969;SDS011;8601;48.718;8.992;2023-03-05T08:32:42;26.07;;;15.37;;
16969;SDS011;8601;48.718;8.992;2023-03-05T08:35:09;24.93;;;16.50;;
16969;SDS011;8601;48.718;8.992;2023-03-05T08:37:39;23.10;;;14.97;;
16969;SDS011;8601;48.718;8.992;2023-03-05T08:40:07;23.87;;;15.83;;
16969;SDS011;8601;48.718;8.992;2023-03-05T08:42:36;21.90;;;14.03;;
16969;SDS011;8601;48.718;8.992;2023-03-05T08:45:03;21.43;;;15.87;;
16969;SDS011;8601;48.718;8.992;2023-03-05T08:47:31;25.37;;;14.97;;
16969;SDS011;8601;48.718;8.992;2023-03-05T08:49:58;24.10;;;14.93;;
16969;SDS011;8601;48.718;8.992;2023-03-05T08:52:25;21.43;;;14.87;;
16969;SDS011;8601;48.718;8.992;2023-03-05T08:54:52;20.57;;;14.33;;
16969;SDS011;8601;48.718;8.992;2023-03-05T08:57:19;22.20;;;14.73;;
16969;SDS011;8601;48.718;8.992;2023-03-05T08:59:47;24.93;;;15.77;;
16969;SDS011;8601;48.718;8.992;2023-03-05T09:02:14;26.00;;;17.07;;
16969;SDS011;8601;48.718;8.992;2023-03-05T09:04:42;24.40;;;15.37;;
16969;SDS011;8601;48.718;8.992;2023-03-05T09:07:09;18.63;;;13.80;;
16969;SDS011;8601;48.718;8.992;2023-03-05T09:09:37;22.00;;;14.37;;
16969;SDS011;8601;48.718;8.992;2023-03-05T09:12:04;23.80;;;13.80;;
16969;SDS011;8601;48.718;8.992;2023-03-05T09:14:31;22.10;;;14.83;;
16969;SDS011;8601;48.718;8.992;2023-03-05T09:17:00;20.73;;;15.13;;
16969;SDS011;8601;48.718;8.992;2023-03-05T09:19:28;23.10;;;14.50;;
16969;SDS011;8601;48.718;8.992;2023-03-05T09:21:55;24.40;;;15.27;;
16969;SDS011;8601;48.718;8.992;2023-03-05T09:24:22;23.00;;;14.60;;
16969;SDS011;8601;48.718;8.992;2023-03-05T09:26:49;21.47;;;14.50;;
16969;SDS011;8601;48.718;8.992;2023-03-05T09:29:16;20.27;;;14.00;;
16969;SDS011;8601;48.718;8.992;2023-03-05T09:31:43;18.70;;;14.30;;
16969;SDS011;8601;48.718;8.992;2023-03-05T09:34:14;19.37;;;13.80;;
16969;SDS011;8601;48.718;8.992;2023-03-05T09:36:41;22.07;;;14.10;;
16969;SDS011;8601;48.718;8.992;2023-03-05T09:39:08;20.03;;;13.57;;
16969;SDS011;8601;48.718;8.992;2023-03-05T09:41:38;21.10;;;14.37;;
16969;SDS011;8601;48.718;8.992;2023-03-05T09:44:21;20.47;;;14.93;;
16969;SDS011;8601;48.718;8.992;2023-03-05T09:47:01;22.00;;;14.30;;
16969;SDS011;8601;48.718;8.992;2023-03-05T09:49:42;20.20;;;14.17;;
16969;SDS011;8601;48.718;8.992;2023-03-05T09:52:17;23.07;;;14.70;;
16969;SDS011;8601;48.718;8.992;2023-03-05T09:54:46;21.63;;;14.03;;
16969;SDS011;8601;48.718;8.992;2023-03-05T09:57:19;21.97;;;14.13;;
16969;SDS011;8601;48.718;8.992;2023-03-05T09:59:50;21.30;;;13.63;;
16969;SDS011;8601;48.718;8.992;2023-03-05T10:02:20;20.97;;;14.30;;
16969;SDS011;8601;48.718;8.992;2023-03-05T10:04:53;19.77;;;14.40;;
16969;SDS011;8601;48.718;8.992;2023-03-05T10:07:32;19.63;;;14.20;;
16969;SDS011;8601;48.718;8.992;2023-03-05T10:10:03;23.00;;;15.23;;
16969;SDS011;8601;48.718;8.992;2023-03-05T10:12:36;20.93;;;14.17;;
16969;SDS011;8601;48.718;8.992;2023-03-05T10:15:08;22.97;;;14.90;;
16969;SDS011;8601;48.718;8.992;2023-03-05T10:17:52;19.80;;;13.83;;
16969;SDS011;8601;48.718;8.992;2023-03-05T10:20:52;23.47;;;14.30;;
16969;SDS011;8601;48.718;8.992;2023-03-05T10:23:25;19.93;;;13.00;;
16969;SDS011;8601;48.718;8.992;2023-03-05T10:26:09;17.23;;;13.00;;
16969;SDS011;8601;48.718;8.992;2023-03-05T10:28:56;20.83;;;14.00;;
16969;SDS011;8601;48.718;8.992;2023-03-05T10:31:40;20.03;;;14.40;;
16969;SDS011;8601;48.718;8.992;2023-03-05T10:34:35;16.83;;;12.40;;
16969;SDS011;8601;48.718;8.992;2023-03-05T10:37:27;18.67;;;13.17;;
16969;SDS011;8601;48.718;8.992;2023-03-05T10:40:17;22.87;;;14.17;;
16969;SDS011;8601;48.718;8.992;2023-03-05T10:42:52;20.43;;;14.00;;
16969;SDS011;8601;48.718;8.992;2023-03-05T10:45:27;19.97;;;13.43;;
16969;SDS011;8601;48.718;8.992;2023-03-05T10:47:58;21.90;;;14.03;;
16969;SDS011;8601;48.718;8.992;2023-03-05T10:50:33;22.27;;;14.80;;
16969;SDS011;8601;48.718;8.992;2023-03-05T10:53:11;19.73;;;14.40;;
16969;SDS011;8601;48.718;8.992;2023-03-05T10:55:42;22.50;;;14.77;;
16969;SDS011;8601;48.718;8.992;2023-03-05T10:58:09;23.10;;;15.40;;
16969;SDS011;8601;48.718;8.992;2023-03-05T11:00:38;20.10;;;15.23;;
16969;SDS011;8601;48.718;8.992;2023-03-05T11:05:44;20.90;;;14.37;;
16969;SDS011;8601;48.718;8.992;2023-03-05T11:08:27;20.70;;;15.10;;
16969;SDS011;8601;48.718;8.992;2023-03-05T11:11:15;20.17;;;13.73;;
16969;SDS011;8601;48.718;8.992;2023-03-05T11:13:49;19.00;;;13.47;;
16969;SDS011;8601;48.718;8.992;2023-03-05T11:16:21;18.60;;;13.03;;
16969;SDS011;8601;48.718;8.992;2023-03-05T11:18:49;20.10;;;12.93;;
16969;SDS011;8601;48.718;8.992;2023-03-05T11:21:35;20.33;;;14.47;;
16969;SDS011;8601;48.718;8.992;2023-03-05T11:24:04;18.70;;;12.97;;
16969;SDS011;8601;48.718;8.992;2023-03-05T11:26:44;20.07;;;12.43;;
16969;SDS011;8601;48.718;8.992;2023-03-05T11:29:20;18.83;;;13.17;;
16969;SDS011;8601;48.718;8.992;2023-03-05T11:31:48;19.33;;;14.03;;
16969;SDS011;8601;48.718;8.992;2023-03-05T11:34:29;19.73;;;13.67;;
16969;SDS011;8601;48.718;8.992;2023-03-05T11:37:04;20.37;;;14.63;;
16969;SDS011;8601;48.718;8.992;2023-03-05T11:39:41;23.70;;;15.23;;
16969;SDS011;8601;48.718;8.992;2023-03-05T11:42:10;20.80;;;13.97;;
16969;SDS011;8601;48.718;8.992;2023-03-05T11:44:42;20.23;;;14.40;;
16969;SDS011;8601;48.718;8.992;2023-03-05T11:47:15;21.80;;;13.77;;
16969;SDS011;8601;48.718;8.992;2023-03-05T11:49:55;18.90;;;13.43;;
16969;SDS011;8601;48.718;8.992;2023-03-05T11:52:36;22.27;;;13.93;;
16969;SDS011;8601;48.718;8.992;2023-03-05T11:55:11;22.00;;;14.70;;
16969;SDS011;8601;48.718;8.992;2023-03-05T11:57:43;23.30;;;14.93;;
16969;SDS011;8601;48.718;8.992;2023-03-05T12:00:16;22.93;;;14.83;;
16969;SDS011;8601;48.718;8.992;2023-03-05T12:02:48;21.00;;;13.40;;
16969;SDS011;8601;48.718;8.992;2023-03-05T12:05:18;21.67;;;14.60;;
16969;SDS011;8601;48.718;8.992;2023-03-05T12:07:46;22.57;;;15.07;;
16969;SDS011;8601;48.718;8.992;2023-03-05T12:10:18;21.20;;;14.90;;
16969;SDS011;8601;48.718;8.992;2023-03-05T12:12:48;20.80;;;14.33;;
16969;SDS011;8601;48.718;8.992;2023-03-05T12:18:24;24.17;;;15.07;;
16969;SDS011;8601;48.718;8.992;2023-03-05T12:21:02;24.33;;;15.07;;
16969;SDS011;8601;48.718;8.992;2023-03-05T12:23:45;24.37;;;15.87;;
16969;SDS011;8601;48.718;8.992;2023-03-05T12:26:15;26.37;;;17.10;;
16969;SDS011;8601;48.718;8.992;2023-03-05T12:28:51;27.07;;;17.37;;
16969;SDS011;8601;48.718;8.992;2023-03-05T12:37:12;27.37;;;17.23;;
16969;SDS011;8601;48.718;8.992;2023-03-05T12:40:00;27.43;;;17.77;;
16969;SDS011;8601;48.718;8.992;2023-03-05T12:45:28;27.17;;;17.17;;
16969;SDS011;8601;48.718;8.992;2023-03-05T12:53:54;30.30;;;18.07;;
16969;SDS011;8601;48.718;8.992;2023-03-05T12:56:21;28.20;;;17.47;;
16969;SDS011;8601;48.718;8.992;2023-03-05T12:58:56;24.70;;;15.90;;
16969;SDS011;8601;48.718;8.992;2023-03-05T13:01:31;22.30;;;15.40;;
16969;SDS011;8601;48.718;8.992;2023-03-05T13:04:04;26.03;;;16.10;;
16969;SDS011;8601;48.718;8.992;2023-03-05T13:06:35;20.60;;;14.87;;
16969;SDS011;8601;48.718;8.992;2023-03-05T13:09:06;22.13;;;14.73;;
16969;SDS011;8601;48.718;8.992;2023-03-05T13:11:43;26.83;;;15.80;;
16969;SDS011;8601;48.718;8.992;2023-03-05T13:14:27;23.90;;;14.60;;
16969;SDS011;8601;48.718;8.992;2023-03-05T13:16:56;22.63;;;14.13;;
16969;SDS011;8601;48.718;8.992;2023-03-05T13:19:23;19.93;;;14.30;;
16969;SDS011;8601;48.718;8.992;2023-03-05T13:21:58;22.47;;;15.10;;
16969;SDS011;8601;48.718;8.992;2023-03-05T13:24:29;21.93;;;13.57;;
16969;SDS011;8601;48.718;8.992;2023-03-05T13:26:56;23.53;;;15.07;;
16969;SDS011;8601;48.718;8.992;2023-03-05T13:29:26;25.07;;;14.60;;
16969;SDS011;8601;48.718;8.992;2023-03-05T13:31:55;25.70;;;16.87;;
16969;SDS011;8601;48.718;8.992;2023-03-05T13:34:24;23.30;;;14.97;;
16969;SDS011;8601;48.718;8.992;2023-03-05T13:36:55;25.60;;;15.30;;
16969;SDS011;8601;48.718;8.992;2023-03-05T13:39:25;24.23;;;15.13;;
16969;SDS011;8601;48.718;8.992;2023-03-05T13:41:55;21.30;;;14.47;;
16969;SDS011;8601;48.718;8.992;2023-03-05T13:44:29;19.07;;;13.00;;
16969;SDS011;8601;48.718;8.992;2023-03-05T13:47:07;18.60;;;14.23;;
16969;SDS011;8601;48.718;8.992;2023-03-05T13:49:39;21.37;;;14.23;;
16969;SDS011;8601;48.718;8.992;2023-03-05T13:52:06;21.37;;;13.27;;
16969;SDS011;8601;48.718;8.992;2023-03-05T13:54:32;19.40;;;13.07;;
16969;SDS011;8601;48.718;8.992;2023-03-05T13:57:00;20.60;;;12.33;;
16969;SDS011;8601;48.718;8.992;2023-03-05T14:02:10;20.20;;;13.33;;
16969;SDS011;8601;48.718;8.992;2023-03-05T14:04:42;21.27;;;12.80;;
16969;SDS011;8601;48.718;8.992;2023-03-05T14:07:21;17.93;;;11.97;;
16969;SDS011;8601;48.718;8.992;2023-03-05T14:09:54;19.13;;;13.17;;
16969;SDS011;8601;48.718;8.992;2023-03-05T14:12:24;20.90;;;13.10;;
16969;SDS011;8601;48.718;8.992;2023-03-05T14:14:55;19.57;;;13.03;;
16969;SDS011;8601;48.718;8.992;2023-03-05T14:17:35;19.83;;;12.63;;
16969;SDS011;8601;48.718;8.992;2023-03-05T14:20:13;18.83;;;12.20;;
16969;SDS011;8601;48.718;8.992;2023-03-05T14:22:47;16.63;;;11.40;;
16969;SDS011;8601;48.718;8.992;2023-03-05T14:25:27;21.90;;;12.47;;
16969;SDS011;8601;48.718;8.992;2023-03-05T14:27:58;21.53;;;12.40;;
16969;SDS011;8601;48.718;8.992;2023-03-05T14:30:27;20.90;;;13.13;;
16969;SDS011;8601;48.718;8.992;2023-03-05T14:32:55;20.63;;;13.53;;
16969;SDS011;8601;48.718;8.992;2023-03-05T14:35:25;20.67;;;13.80;;
16969;SDS011;8601;48.718;8.992;2023-03-05T14:37:54;20.97;;;12.90;;
16969;SDS011;8601;48.718;8.992;2023-03-05T14:40:25;23.47;;;13.93;;
16969;SDS011;8601;48.718;8.992;2023-03-05T14:42:55;19.60;;;13.17;;
16969;SDS011;8601;48.718;8.992;2023-03-05T14:45:23;25.80;;;14.27;;
16969;SDS011;8601;48.718;8.992;2023-03-05T14:47:53;22.43;;;14.53;;
16969;SDS011;8601;48.718;8.992;2023-03-05T14:50:22;22.07;;;13.77;;
16969;SDS011;8601;48.718;8.992;2023-03-05T14:52:50;21.00;;;13.87;;
16969;SDS011;8601;48.718;8.992;2023-03-05T14:55:21;20.60;;;14.50;;
16969;SDS011;8601;48.718;8.992;2023-03-05T14:57:49;18.93;;;13.37;;
16969;SDS011;8601;48.718;8.992;2023-03-05T15:00:19;24.43;;;14.83;;
16969;SDS011;8601;48.718;8.992;2023-03-05T15:02:47;19.90;;;14.07;;
16969;SDS011;8601;48.718;8.992;2023-03-05T15:05:16;20.27;;;13.83;;
16969;SDS011;8601;48.718;8.992;2023-03-05T15:07:44;22.20;;;15.33;;
16969;SDS011;8601;48.718;8.992;2023-03-05T15:10:12;21.43;;;14.20;;
16969;SDS011;8601;48.718;8.992;2023-03-05T15:12:41;21.97;;;14.37;;
16969;SDS011;8601;48.718;8.992;2023-03-05T15:15:09;26.27;;;13.87;;
16969;SDS011;8601;48.718;8.992;2023-03-05T15:17:39;23.87;;;15.00;;